MSC Susanna — 3ECU4 — position and weather

sailwx.info

Track history (hours):
 
Tides and Currents Weather Stations Pressure Air Temp Water Temp Dewpoint Dewpoint Depression Visibility Wind Speed Wind Dir Waves Ship Positions

MSC Susanna

Last reported at 2017-Jan-14 21:20 UTC. Time now 2017-Jan-19 00:19 UTC.
Position S 33°48' E 018°17'.

Length 337 m; draft 12 m.

Type: Ship (hazmat cat A). MMSI: 371466000.

Date/timePositionNaut miles runAvg speedWind from/ knotsBaromVisibWave heightAir tempDewpointWater temp
2017-Jan-14 21:20S 33°48' E 018°17'1012.9
2017-Jan-14 20:32S 33°54' E 018°26'1 0.6
2017-Jan-14 19:32S 33°55' E 018°27'0 0.0
2017-Jan-14 18:33S 33°55' E 018°27'0 0.0
2017-Jan-14 17:33S 33°55' E 018°27'0 0.0
2017-Jan-14 16:33S 33°55' E 018°27'0 0.0
2017-Jan-14 15:33S 33°55' E 018°27'0 0.0
2017-Jan-14 14:33S 33°55' E 018°27'0 0.0
2017-Jan-14 13:33S 33°55' E 018°27'0 0.0
2017-Jan-14 12:33S 33°55' E 018°27'0 0.0
2017-Jan-14 11:33S 33°55' E 018°27'0 0.0
2017-Jan-14 10:33S 33°55' E 018°27'0 0.0
2017-Jan-14 09:33S 33°55' E 018°27'0 0.0
2017-Jan-14 08:33S 33°55' E 018°27'0 0.0
2017-Jan-14 07:33S 33°55' E 018°27'0 0.0
2017-Jan-14 06:33S 33°55' E 018°27'0 0.0
2017-Jan-14 05:33S 33°55' E 018°27'0 0.0
2017-Jan-14 04:33S 33°55' E 018°27'0 0.0
2017-Jan-14 03:33S 33°55' E 018°27'0 0.0
2017-Jan-13 23:33S 33°55' E 018°27'0 0.0
2017-Jan-13 22:33S 33°55' E 018°27'0 0.0
2017-Jan-13 21:33S 33°55' E 018°27'0 0.0
2017-Jan-13 20:33S 33°55' E 018°27'0 0.0
2017-Jan-13 19:33S 33°55' E 018°27'0 0.0
2017-Jan-13 18:33S 33°55' E 018°27'0 0.0
2017-Jan-13 17:32S 33°55' E 018°27'0 0.0
2017-Jan-13 16:31S 33°55' E 018°27'0 0.0
2017-Jan-13 15:33S 33°55' E 018°27'0 0.0
2017-Jan-13 14:32S 33°55' E 018°27'0 0.0
2017-Jan-13 13:33S 33°55' E 018°27'0 0.0
2017-Jan-13 12:32S 33°55' E 018°27'0 0.0
2017-Jan-13 11:33S 33°55' E 018°27'0 0.0
2017-Jan-13 10:33S 33°55' E 018°27'0 0.0
2017-Jan-13 09:33S 33°55' E 018°27'0 0.0
2017-Jan-13 08:33S 33°55' E 018°27'0 0.0
2017-Jan-13 07:33S 33°55' E 018°27'0 0.0
2017-Jan-13 06:33S 33°55' E 018°27'0 0.0
2017-Jan-13 05:33S 33°55' E 018°27'0 0.0
2017-Jan-13 04:33S 33°55' E 018°27'0 0.0
2017-Jan-13 03:33S 33°55' E 018°27'0 0.0
2017-Jan-13 02:32S 33°55' E 018°27'0 0.0
2017-Jan-13 01:33S 33°55' E 018°27'0 0.0
2017-Jan-13 00:33S 33°55' E 018°27'0 0.0
2017-Jan-12 23:33S 33°55' E 018°27'0 0.0
2017-Jan-12 22:33S 33°55' E 018°27'0 0.0
2017-Jan-12 21:33S 33°55' E 018°27'0 0.0
2017-Jan-12 20:33S 33°55' E 018°27'0 0.0
2017-Jan-12 19:33S 33°55' E 018°27'1 1.0
2017-Jan-12 18:33S 33°54' E 018°26'3 3.0
2017-Jan-12 17:33S 33°52' E 018°23'8 8.1
2017-Jan-12 16:33S 33°52' E 018°13'2 0.7
2017-Jan-12 13:30S 33°50' E 018°14'1 1.4
2017-Jan-12 12:29S 33°51' E 018°15'1 1.2
2017-Jan-12 11:26S 33°50' E 018°14'1 1.0
2017-Jan-12 10:31S 33°51' E 018°13'3 2.3
2017-Jan-12 09:13S 33°54' E 018°14'1 1.7
2017-Jan-12 08:30S 33°55' E 018°14'  
2017-Jan-09 16:14S 30°31' E 030°45'17 9.4
2017-Jan-09 14:28S 30°16' E 030°54'1516.4
2017-Jan-09 13:33S 30°03' E 031°02'1111.4
2017-Jan-09 12:33S 29°52' E 031°04'2 2.3
2017-Jan-09 11:33S 29°53' E 031°02'0 0.0
2017-Jan-09 10:33S 29°53' E 031°02'0 0.0
2017-Jan-09 09:33S 29°53' E 031°02'0 0.0
2017-Jan-09 08:33S 29°53' E 031°02'0 0.0
2017-Jan-09 07:33S 29°53' E 031°02'0 0.0
2017-Jan-09 06:33S 29°53' E 031°02'0 0.0
2017-Jan-09 05:33S 29°53' E 031°02'0 0.0
2017-Jan-09 04:30S 29°53' E 031°02'0 0.0
2017-Jan-09 03:33S 29°53' E 031°02'0 0.0
2017-Jan-09 02:33S 29°53' E 031°02'0 0.0
2017-Jan-09 01:33S 29°53' E 031°02'0 0.0
2017-Jan-09 00:33S 29°53' E 031°02'0 0.0
2017-Jan-08 23:33S 29°53' E 031°02'0 0.0
2017-Jan-08 22:33S 29°53' E 031°02'0 0.0
2017-Jan-08 21:33S 29°53' E 031°02'0 0.0
2017-Jan-08 20:33S 29°53' E 031°02'0 0.0
2017-Jan-08 19:33S 29°53' E 031°02'0 0.0
2017-Jan-08 18:33S 29°53' E 031°02'0 0.0
2017-Jan-08 17:33S 29°53' E 031°02'0 0.0
2017-Jan-08 16:33S 29°53' E 031°02'0 0.0
2017-Jan-08 15:33S 29°53' E 031°02'0 0.0
2017-Jan-08 14:33S 29°53' E 031°02'0 0.0
2017-Jan-08 13:33S 29°53' E 031°02'0 0.0
2017-Jan-08 12:33S 29°53' E 031°02'0 0.0
2017-Jan-08 11:33S 29°53' E 031°02'0 0.0
2017-Jan-08 10:33S 29°53' E 031°02'1 1.5
2017-Jan-08 09:33S 29°52' E 031°03'7 6.7
2017-Jan-08 08:33S 29°49' E 031°10'2 1.8
2017-Jan-08 07:33S 29°50' E 031°12'2 1.9
2017-Jan-08 06:33S 29°48' E 031°10'7 7.1
2017-Jan-08 05:33S 29°54' E 031°15'1 0.7
2017-Jan-08 04:33S 29°54' E 031°16'1 0.5
2017-Jan-08 03:33S 29°54' E 031°17'1 0.5
2017-Jan-08 02:33S 29°55' E 031°17'1 0.6
2017-Jan-08 01:33S 29°55' E 031°18'1 0.7
2017-Jan-08 00:33S 29°55' E 031°18'1 0.7
2017-Jan-07 23:33S 29°55' E 031°19'1 0.8
2017-Jan-07 22:33S 29°54' E 031°19'1211.7
2017-Jan-07 21:33S 29°49' E 031°07'0 0.4
2017-Jan-07 20:33S 29°49' E 031°07'3 3.3
2017-Jan-07 19:34S 29°48' E 031°10'6 6.3
2017-Jan-07 18:33S 29°47' E 031°18'1 1.2
2017-Jan-07 17:33S 29°48' E 031°18'1 0.6
2017-Jan-07 16:33S 29°48' E 031°19'1212.0
2017-Jan-07 15:33S 29°49' E 031°33'4 4.5
2017-Jan-07 14:33S 29°48' E 031°38'1 1.5
2017-Jan-07 13:33S 29°46' E 031°39'1 1.4
2017-Jan-07 12:33S 29°45' E 031°40'1 1.2
2017-Jan-07 11:33S 29°44' E 031°41'1 0.8
2017-Jan-07 10:33S 29°43' E 031°41'1 0.8
2017-Jan-07 09:33S 29°43' E 031°41'1 0.9
2017-Jan-07 08:33S 29°42' E 031°41'1 0.8
2017-Jan-07 07:33S 29°41' E 031°41'5 5.2
2017-Jan-07 06:33S 29°39' E 031°47'8 7.5
2017-Jan-07 05:33S 29°36' E 031°55'7 7.3
2017-Jan-07 04:33S 29°34' E 032°03'  
Track history (hours):
 
Tides and Currents Weather Stations Pressure Air Temp Water Temp Dewpoint Dewpoint Depression Visibility Wind Speed Wind Dir Waves Ship Positions

MSC Susanna

Last reported at 2017-Jan-14 21:20 UTC. Time now 2017-Jan-19 00:19 UTC.
Position S 33°48' E 018°17'.

Length 337 m; draft 12 m.

Type: Ship (hazmat cat A). MMSI: 371466000.

Date/timePositionNaut miles runAvg speedWind from/ knotsBaromVisibWave heightAir tempDewpointWater temp
2017-Jan-14 21:20S 33°48' E 018°17'1012.9
2017-Jan-14 20:32S 33°54' E 018°26'1 0.6
2017-Jan-14 19:32S 33°55' E 018°27'0 0.0
2017-Jan-14 18:33S 33°55' E 018°27'0 0.0
2017-Jan-14 17:33S 33°55' E 018°27'0 0.0
2017-Jan-14 16:33S 33°55' E 018°27'0 0.0
2017-Jan-14 15:33S 33°55' E 018°27'0 0.0
2017-Jan-14 14:33S 33°55' E 018°27'0 0.0
2017-Jan-14 13:33S 33°55' E 018°27'0 0.0
2017-Jan-14 12:33S 33°55' E 018°27'0 0.0
2017-Jan-14 11:33S 33°55' E 018°27'0 0.0
2017-Jan-14 10:33S 33°55' E 018°27'0 0.0
2017-Jan-14 09:33S 33°55' E 018°27'0 0.0
2017-Jan-14 08:33S 33°55' E 018°27'0 0.0
2017-Jan-14 07:33S 33°55' E 018°27'0 0.0
2017-Jan-14 06:33S 33°55' E 018°27'0 0.0
2017-Jan-14 05:33S 33°55' E 018°27'0 0.0
2017-Jan-14 04:33S 33°55' E 018°27'0 0.0
2017-Jan-14 03:33S 33°55' E 018°27'0 0.0
2017-Jan-13 23:33S 33°55' E 018°27'0 0.0
2017-Jan-13 22:33S 33°55' E 018°27'0 0.0
2017-Jan-13 21:33S 33°55' E 018°27'0 0.0
2017-Jan-13 20:33S 33°55' E 018°27'0 0.0
2017-Jan-13 19:33S 33°55' E 018°27'0 0.0
2017-Jan-13 18:33S 33°55' E 018°27'0 0.0
2017-Jan-13 17:32S 33°55' E 018°27'0 0.0
2017-Jan-13 16:31S 33°55' E 018°27'0 0.0
2017-Jan-13 15:33S 33°55' E 018°27'0 0.0
2017-Jan-13 14:32S 33°55' E 018°27'0 0.0
2017-Jan-13 13:33S 33°55' E 018°27'0 0.0
2017-Jan-13 12:32S 33°55' E 018°27'0 0.0
2017-Jan-13 11:33S 33°55' E 018°27'0 0.0
2017-Jan-13 10:33S 33°55' E 018°27'0 0.0
2017-Jan-13 09:33S 33°55' E 018°27'0 0.0
2017-Jan-13 08:33S 33°55' E 018°27'0 0.0
2017-Jan-13 07:33S 33°55' E 018°27'0 0.0
2017-Jan-13 06:33S 33°55' E 018°27'0 0.0
2017-Jan-13 05:33S 33°55' E 018°27'0 0.0
2017-Jan-13 04:33S 33°55' E 018°27'0 0.0
2017-Jan-13 03:33S 33°55' E 018°27'0 0.0
2017-Jan-13 02:32S 33°55' E 018°27'0 0.0
2017-Jan-13 01:33S 33°55' E 018°27'0 0.0
2017-Jan-13 00:33S 33°55' E 018°27'0 0.0
2017-Jan-12 23:33S 33°55' E 018°27'0 0.0
2017-Jan-12 22:33S 33°55' E 018°27'0 0.0
2017-Jan-12 21:33S 33°55' E 018°27'0 0.0
2017-Jan-12 20:33S 33°55' E 018°27'0 0.0
2017-Jan-12 19:33S 33°55' E 018°27'1 1.0
2017-Jan-12 18:33S 33°54' E 018°26'3 3.0
2017-Jan-12 17:33S 33°52' E 018°23'8 8.1
2017-Jan-12 16:33S 33°52' E 018°13'2 0.7
2017-Jan-12 13:30S 33°50' E 018°14'1 1.4
2017-Jan-12 12:29S 33°51' E 018°15'1 1.2
2017-Jan-12 11:26S 33°50' E 018°14'1 1.0
2017-Jan-12 10:31S 33°51' E 018°13'3 2.3
2017-Jan-12 09:13S 33°54' E 018°14'1 1.7
2017-Jan-12 08:30S 33°55' E 018°14'  
2017-Jan-09 16:14S 30°31' E 030°45'17 9.4
2017-Jan-09 14:28S 30°16' E 030°54'1516.4
2017-Jan-09 13:33S 30°03' E 031°02'1111.4
2017-Jan-09 12:33S 29°52' E 031°04'2 2.3
2017-Jan-09 11:33S 29°53' E 031°02'0 0.0
2017-Jan-09 10:33S 29°53' E 031°02'0 0.0
2017-Jan-09 09:33S 29°53' E 031°02'0 0.0
2017-Jan-09 08:33S 29°53' E 031°02'0 0.0
2017-Jan-09 07:33S 29°53' E 031°02'0 0.0
2017-Jan-09 06:33S 29°53' E 031°02'0 0.0
2017-Jan-09 05:33S 29°53' E 031°02'0 0.0
2017-Jan-09 04:30S 29°53' E 031°02'0 0.0
2017-Jan-09 03:33S 29°53' E 031°02'0 0.0
2017-Jan-09 02:33S 29°53' E 031°02'0 0.0
2017-Jan-09 01:33S 29°53' E 031°02'0 0.0
2017-Jan-09 00:33S 29°53' E 031°02'0 0.0
2017-Jan-08 23:33S 29°53' E 031°02'0 0.0
2017-Jan-08 22:33S 29°53' E 031°02'0 0.0
2017-Jan-08 21:33S 29°53' E 031°02'0 0.0
2017-Jan-08 20:33S 29°53' E 031°02'0 0.0
2017-Jan-08 19:33S 29°53' E 031°02'0 0.0
2017-Jan-08 18:33S 29°53' E 031°02'0 0.0
2017-Jan-08 17:33S 29°53' E 031°02'0 0.0
2017-Jan-08 16:33S 29°53' E 031°02'0 0.0
2017-Jan-08 15:33S 29°53' E 031°02'0 0.0
2017-Jan-08 14:33S 29°53' E 031°02'0 0.0
2017-Jan-08 13:33S 29°53' E 031°02'0 0.0
2017-Jan-08 12:33S 29°53' E 031°02'0 0.0
2017-Jan-08 11:33S 29°53' E 031°02'0 0.0
2017-Jan-08 10:33S 29°53' E 031°02'1 1.5
2017-Jan-08 09:33S 29°52' E 031°03'7 6.7
2017-Jan-08 08:33S 29°49' E 031°10'2 1.8
2017-Jan-08 07:33S 29°50' E 031°12'2 1.9
2017-Jan-08 06:33S 29°48' E 031°10'7 7.1
2017-Jan-08 05:33S 29°54' E 031°15'1 0.7
2017-Jan-08 04:33S 29°54' E 031°16'1 0.5
2017-Jan-08 03:33S 29°54' E 031°17'1 0.5
2017-Jan-08 02:33S 29°55' E 031°17'1 0.6
2017-Jan-08 01:33S 29°55' E 031°18'1 0.7
2017-Jan-08 00:33S 29°55' E 031°18'1 0.7
2017-Jan-07 23:33S 29°55' E 031°19'1 0.8
2017-Jan-07 22:33S 29°54' E 031°19'1211.7
2017-Jan-07 21:33S 29°49' E 031°07'0 0.4
2017-Jan-07 20:33S 29°49' E 031°07'3 3.3
2017-Jan-07 19:34S 29°48' E 031°10'6 6.3
2017-Jan-07 18:33S 29°47' E 031°18'1 1.2
2017-Jan-07 17:33S 29°48' E 031°18'1 0.6
2017-Jan-07 16:33S 29°48' E 031°19'1212.0
2017-Jan-07 15:33S 29°49' E 031°33'4 4.5
2017-Jan-07 14:33S 29°48' E 031°38'1 1.5
2017-Jan-07 13:33S 29°46' E 031°39'1 1.4
2017-Jan-07 12:33S 29°45' E 031°40'1 1.2
2017-Jan-07 11:33S 29°44' E 031°41'1 0.8
2017-Jan-07 10:33S 29°43' E 031°41'1 0.8
2017-Jan-07 09:33S 29°43' E 031°41'1 0.9
2017-Jan-07 08:33S 29°42' E 031°41'1 0.8
2017-Jan-07 07:33S 29°41' E 031°41'5 5.2
2017-Jan-07 06:33S 29°39' E 031°47'8 7.5
2017-Jan-07 05:33S 29°36' E 031°55'7 7.3
2017-Jan-07 04:33S 29°34' E 032°03'  

Dump ship's entire track history